createdAt,value
2018-06-23T00:00:58.410Z,6.60
2018-06-23T00:01:58.432Z,7.30
2018-06-23T00:02:58.486Z,7.50
2018-06-23T00:03:58.451Z,5.90
2018-06-23T00:04:58.399Z,7.00
2018-06-23T00:05:58.455Z,7.30
2018-06-23T00:06:58.459Z,6.80
2018-06-23T00:07:59.116Z,6.60
2018-06-23T00:08:58.427Z,6.80
2018-06-23T00:09:58.469Z,6.40
2018-06-23T00:10:58.474Z,5.80
2018-06-23T00:11:58.469Z,6.80
2018-06-23T00:12:58.480Z,6.60
2018-06-23T00:13:58.458Z,7.00
2018-06-23T00:14:58.453Z,7.30
2018-06-23T00:15:58.465Z,6.80
2018-06-23T00:16:58.468Z,6.60
2018-06-23T00:17:58.477Z,6.90
2018-06-23T00:18:58.428Z,7.20
2018-06-23T00:19:58.451Z,7.40
2018-06-23T00:20:58.443Z,6.50
2018-06-23T00:21:58.468Z,6.90
2018-06-23T00:22:58.468Z,6.40
2018-06-23T00:23:58.462Z,6.50
2018-06-23T00:24:58.468Z,7.20
2018-06-23T00:25:58.449Z,6.50
2018-06-23T00:26:58.491Z,6.80
2018-06-23T00:27:58.477Z,7.20
2018-06-23T00:28:58.509Z,6.70
2018-06-23T00:29:58.525Z,7.40
2018-06-23T00:30:58.477Z,6.80
2018-06-23T00:31:58.472Z,7.00
2018-06-23T00:32:58.482Z,6.80
2018-06-23T00:33:58.540Z,6.80
2018-06-23T00:34:58.457Z,6.60
2018-06-23T00:35:58.456Z,7.60
2018-06-23T00:36:58.485Z,7.30
2018-06-23T00:37:58.485Z,7.50
2018-06-23T00:38:58.460Z,7.20
2018-06-23T00:39:58.469Z,7.00
2018-06-23T00:40:58.453Z,6.90
2018-06-23T00:41:58.465Z,6.90
2018-06-23T00:42:58.449Z,6.70
2018-06-23T00:43:58.479Z,6.70
2018-06-23T00:44:58.445Z,6.40
2018-06-23T00:45:58.540Z,6.90
2018-06-23T00:46:58.533Z,6.40
2018-06-23T00:47:58.572Z,6.90
2018-06-23T00:48:58.502Z,7.20
2018-06-23T00:49:58.524Z,6.50
2018-06-23T00:50:58.476Z,7.00
2018-06-23T00:51:58.481Z,7.70
2018-06-23T00:52:58.469Z,6.80
2018-06-23T00:53:58.470Z,7.60
2018-06-23T00:54:58.502Z,6.70
2018-06-23T00:55:58.496Z,7.20
2018-06-23T00:56:58.475Z,7.10
2018-06-23T00:57:58.503Z,6.80
2018-06-23T00:58:58.492Z,7.90
2018-06-23T00:59:58.512Z,5.90
2018-06-23T01:00:58.523Z,6.70
2018-06-23T01:01:58.507Z,6.80
2018-06-23T01:02:58.465Z,7.10
2018-06-23T01:03:58.507Z,6.70
2018-06-23T01:04:58.513Z,7.50
2018-06-23T01:05:58.497Z,6.80
2018-06-23T01:06:58.492Z,6.20
2018-06-23T01:07:58.513Z,7.00
2018-06-23T01:08:58.482Z,6.90
2018-06-23T01:09:58.471Z,6.40
2018-06-23T01:10:58.478Z,6.90
2018-06-23T01:11:59.129Z,7.30
2018-06-23T01:12:58.533Z,6.70
2018-06-23T01:13:58.521Z,6.50
2018-06-23T01:14:58.497Z,7.10
2018-06-23T01:15:58.493Z,6.50
2018-06-23T01:16:58.523Z,6.70
2018-06-23T01:17:59.131Z,13.30
2018-06-23T01:18:58.485Z,15.40
2018-06-23T01:19:58.549Z,9.20
2018-06-23T01:20:58.491Z,10.90
2018-06-23T01:21:58.551Z,22.90
2018-06-23T01:22:58.531Z,11.40
2018-06-23T01:23:58.524Z,9.70
2018-06-23T01:24:58.630Z,15.90
2018-06-23T01:25:58.508Z,9.60
2018-06-23T01:26:58.562Z,8.70
2018-06-23T01:27:58.499Z,7.70
2018-06-23T01:28:58.550Z,16.00
2018-06-23T01:29:58.535Z,28.40
2018-06-23T01:30:58.551Z,20.00
2018-06-23T01:31:58.510Z,20.70
2018-06-23T01:32:58.541Z,9.70
2018-06-23T01:33:58.506Z,7.00
2018-06-23T01:34:58.521Z,6.90
2018-06-23T01:35:58.528Z,6.90
2018-06-23T01:36:58.507Z,7.50
2018-06-23T01:37:58.533Z,6.20
2018-06-23T01:38:58.502Z,6.70
2018-06-23T01:39:58.508Z,7.30
2018-06-23T01:40:58.547Z,6.20
2018-06-23T01:41:58.532Z,6.20
2018-06-23T01:42:58.545Z,7.40
2018-06-23T01:43:58.545Z,6.30
2018-06-23T01:44:58.613Z,7.00
2018-06-23T01:45:58.521Z,5.90
2018-06-23T01:46:58.556Z,6.00
2018-06-23T01:47:58.540Z,7.30
2018-06-23T01:48:58.675Z,7.00
2018-06-23T01:49:58.601Z,6.80
2018-06-23T01:50:58.597Z,7.00
2018-06-23T01:51:58.573Z,6.50
2018-06-23T01:52:58.526Z,7.10
2018-06-23T01:53:58.560Z,7.20
2018-06-23T01:54:58.541Z,6.00
2018-06-23T01:55:58.545Z,6.30
2018-06-23T01:56:58.580Z,6.60
2018-06-23T01:57:58.554Z,6.50
2018-06-23T01:58:58.593Z,5.70
2018-06-23T01:59:58.537Z,5.70
2018-06-23T02:00:58.580Z,6.60
2018-06-23T02:01:58.575Z,6.80
2018-06-23T02:02:58.598Z,7.10
2018-06-23T02:03:58.589Z,6.30
2018-06-23T02:04:58.560Z,6.30
2018-06-23T02:05:58.576Z,6.00
2018-06-23T02:06:58.563Z,6.10
2018-06-23T02:07:58.623Z,6.10
2018-06-23T02:08:58.637Z,6.80
2018-06-23T02:10:00.123Z,6.90
2018-06-23T02:10:58.719Z,6.80
2018-06-23T02:11:58.674Z,6.20
2018-06-23T02:12:58.757Z,7.20
2018-06-23T02:13:58.697Z,6.40
2018-06-23T02:14:58.766Z,6.70
2018-06-23T02:15:59.581Z,6.90
2018-06-23T02:16:58.559Z,6.90
2018-06-23T02:17:59.689Z,6.70
2018-06-23T02:18:58.610Z,6.80
2018-06-23T02:19:58.925Z,7.30
2018-06-23T02:20:58.734Z,6.20
2018-06-23T02:21:59.453Z,6.60
2018-06-23T02:22:58.628Z,7.30
2018-06-23T02:23:58.623Z,6.50
2018-06-23T02:24:58.890Z,6.50
2018-06-23T02:25:58.751Z,6.70
2018-06-23T02:26:58.636Z,6.90
2018-06-23T02:27:58.584Z,7.10
2018-06-23T02:28:58.645Z,6.90
2018-06-23T02:29:58.574Z,6.00
2018-06-23T02:30:58.643Z,6.70
2018-06-23T02:31:58.607Z,6.30
2018-06-23T02:32:58.614Z,6.70
2018-06-23T02:33:58.578Z,7.30
2018-06-23T02:34:58.615Z,6.30
2018-06-23T02:35:58.612Z,6.70
2018-06-23T02:36:58.659Z,6.40
2018-06-23T02:37:58.589Z,6.30
2018-06-23T02:38:58.676Z,6.50
2018-06-23T02:39:58.607Z,6.80
2018-06-23T02:40:58.625Z,6.30
2018-06-23T02:41:58.590Z,6.90
2018-06-23T02:42:58.632Z,6.60
2018-06-23T02:43:58.627Z,7.00
2018-06-23T02:44:58.598Z,6.00
2018-06-23T02:45:58.602Z,6.00
2018-06-23T02:46:58.595Z,6.10
2018-06-23T02:47:58.607Z,6.70
2018-06-23T02:48:58.621Z,6.80
2018-06-23T02:49:58.628Z,6.20
2018-06-23T02:50:58.627Z,6.00
2018-06-23T02:51:58.596Z,7.10
2018-06-23T02:52:59.169Z,6.40
2018-06-23T02:53:58.603Z,6.70
2018-06-23T02:54:58.647Z,5.80
2018-06-23T02:55:58.652Z,6.80
2018-06-23T02:56:58.674Z,6.50
2018-06-23T02:57:58.636Z,7.00
2018-06-23T02:58:58.607Z,6.90
2018-06-23T02:59:58.613Z,6.30
2018-06-23T03:00:58.625Z,6.60
2018-06-23T03:01:58.649Z,6.50
2018-06-23T03:02:58.609Z,6.20
2018-06-23T03:03:58.638Z,6.40
2018-06-23T03:04:58.629Z,6.80
2018-06-23T03:05:58.657Z,6.30
2018-06-23T03:06:58.615Z,6.40
2018-06-23T03:07:58.648Z,6.70
2018-06-23T03:08:58.628Z,5.80
2018-06-23T03:09:58.627Z,6.70
2018-06-23T03:10:58.666Z,6.30
2018-06-23T03:11:58.648Z,6.60
2018-06-23T03:12:58.638Z,7.00
2018-06-23T03:13:58.667Z,6.50
2018-06-23T03:14:58.667Z,6.40
2018-06-23T03:15:58.663Z,6.00
2018-06-23T03:16:58.669Z,6.10
2018-06-23T03:17:58.656Z,6.90
2018-06-23T03:18:58.649Z,7.80
2018-06-23T03:19:58.655Z,6.80
2018-06-23T03:20:58.666Z,6.90
2018-06-23T03:21:58.640Z,6.30
2018-06-23T03:22:58.684Z,6.30
2018-06-23T03:23:58.646Z,6.70
2018-06-23T03:24:58.651Z,6.80
2018-06-23T03:25:58.741Z,6.60
2018-06-23T03:26:58.655Z,6.60
2018-06-23T03:27:58.665Z,7.20
2018-06-23T03:28:58.662Z,7.10
2018-06-23T03:29:58.704Z,6.40
2018-06-23T03:30:58.713Z,7.00
2018-06-23T03:31:58.675Z,6.60
2018-06-23T03:32:58.669Z,6.70
2018-06-23T03:33:58.645Z,6.90
2018-06-23T03:34:58.701Z,6.80
2018-06-23T03:35:58.705Z,6.80
2018-06-23T03:36:58.684Z,6.50
2018-06-23T03:37:58.698Z,6.70
2018-06-23T03:38:58.659Z,6.60
2018-06-23T03:39:58.725Z,6.70
2018-06-23T03:40:58.714Z,7.10
2018-06-23T03:41:58.665Z,7.50
2018-06-23T03:42:58.686Z,6.60
2018-06-23T03:43:58.671Z,7.50
2018-06-23T03:44:58.713Z,6.50
2018-06-23T03:45:58.710Z,6.30
2018-06-23T03:46:58.704Z,7.10
2018-06-23T03:47:58.662Z,7.10
2018-06-23T03:48:58.668Z,7.10
2018-06-23T03:49:58.755Z,6.40
2018-06-23T03:50:58.710Z,6.30
2018-06-23T03:51:58.715Z,6.60
2018-06-23T03:52:58.675Z,6.80
2018-06-23T03:53:58.678Z,6.10
2018-06-23T03:54:58.699Z,7.00
2018-06-23T03:55:58.683Z,6.30
2018-06-23T03:56:58.676Z,6.50
2018-06-23T03:57:58.685Z,7.40
2018-06-23T03:58:58.684Z,6.60
2018-06-23T03:59:58.686Z,6.40
2018-06-23T04:00:58.725Z,6.30
2018-06-23T04:01:58.687Z,6.50
2018-06-23T04:02:58.706Z,6.40
2018-06-23T04:03:58.710Z,6.60
2018-06-23T04:04:58.697Z,6.20
2018-06-23T04:05:58.704Z,6.20
2018-06-23T04:06:58.689Z,6.50
2018-06-23T04:07:58.718Z,6.90
2018-06-23T04:08:58.745Z,6.40
2018-06-23T04:09:58.747Z,6.70
2018-06-23T04:10:58.711Z,7.10
2018-06-23T04:11:58.687Z,6.20
2018-06-23T04:12:58.728Z,7.20
2018-06-23T04:13:58.697Z,6.50
2018-06-23T04:14:58.725Z,6.10
2018-06-23T04:15:58.705Z,6.70
2018-06-23T04:16:58.728Z,7.20
2018-06-23T04:17:58.713Z,6.80
2018-06-23T04:18:58.704Z,7.40
2018-06-23T04:19:58.731Z,7.40
2018-06-23T04:20:58.724Z,6.10
2018-06-23T04:21:58.741Z,6.40
2018-06-23T04:22:58.756Z,6.40
2018-06-23T04:23:58.739Z,6.80
2018-06-23T04:24:58.735Z,6.60
2018-06-23T04:25:58.770Z,6.40
2018-06-23T04:26:58.762Z,6.30
2018-06-23T04:27:58.746Z,7.20
2018-06-23T04:28:58.725Z,6.90
2018-06-23T04:29:58.725Z,6.40
2018-06-23T04:30:58.731Z,6.70
2018-06-23T04:31:58.719Z,6.80
2018-06-23T04:32:58.721Z,7.00
2018-06-23T04:33:58.794Z,6.60
2018-06-23T04:34:58.725Z,6.60
2018-06-23T04:35:58.748Z,6.80
2018-06-23T04:36:58.738Z,6.40
2018-06-23T04:37:58.745Z,6.50
2018-06-23T04:38:58.726Z,6.70
2018-06-23T04:39:58.739Z,6.80
2018-06-23T04:40:58.763Z,6.40
2018-06-23T04:41:58.769Z,6.30
2018-06-23T04:42:58.831Z,5.90
2018-06-23T04:43:58.752Z,6.30
2018-06-23T04:44:58.778Z,6.50
2018-06-23T04:45:58.733Z,6.70
2018-06-23T04:46:58.744Z,6.70
2018-06-23T04:47:58.750Z,6.40
2018-06-23T04:48:58.735Z,6.40
2018-06-23T04:49:58.741Z,6.10
2018-06-23T04:50:58.767Z,6.90
2018-06-23T04:51:58.776Z,6.80
2018-06-23T04:52:58.735Z,6.40
2018-06-23T04:53:58.742Z,6.50
2018-06-23T04:54:58.747Z,6.00
2018-06-23T04:55:58.796Z,6.40
2018-06-23T04:56:58.789Z,6.50
2018-06-23T04:57:58.850Z,6.30
2018-06-23T04:58:58.781Z,6.10
2018-06-23T04:59:58.777Z,6.50
2018-06-23T05:00:58.800Z,6.60
2018-06-23T05:01:58.762Z,6.90
2018-06-23T05:02:58.765Z,6.90
2018-06-23T05:03:58.797Z,6.70
2018-06-23T05:04:58.761Z,6.90
2018-06-23T05:05:58.763Z,7.30
2018-06-23T05:06:58.751Z,6.90
2018-06-23T05:07:58.780Z,6.50
2018-06-23T05:08:58.841Z,6.80
2018-06-23T05:09:58.831Z,7.00
2018-06-23T05:10:58.889Z,7.60
2018-06-23T05:11:58.820Z,6.80
2018-06-23T05:12:58.827Z,6.30
2018-06-23T05:13:58.812Z,6.50
2018-06-23T05:14:58.824Z,7.10
2018-06-23T05:15:58.792Z,6.70
2018-06-23T05:16:58.804Z,6.50
2018-06-23T05:17:58.785Z,6.50
2018-06-23T05:18:58.815Z,6.80
2018-06-23T05:19:58.834Z,6.20
2018-06-23T05:20:58.775Z,7.20
2018-06-23T05:21:58.790Z,7.10
2018-06-23T05:22:58.778Z,6.60
2018-06-23T05:23:58.790Z,6.00
2018-06-23T05:24:58.786Z,5.80
2018-06-23T05:25:58.811Z,7.20
2018-06-23T05:26:58.789Z,5.90
2018-06-23T05:27:58.799Z,7.10
2018-06-23T05:28:58.803Z,6.70
2018-06-23T05:29:58.826Z,6.40
2018-06-23T05:30:58.818Z,6.50
2018-06-23T05:31:58.826Z,6.70
2018-06-23T05:32:58.850Z,6.60
2018-06-23T05:33:58.841Z,6.30
2018-06-23T05:34:59.333Z,6.40
2018-06-23T05:35:59.200Z,6.30
2018-06-23T05:36:58.850Z,6.70
2018-06-23T05:37:58.807Z,7.10
2018-06-23T05:38:59.063Z,7.30
2018-06-23T05:39:58.808Z,6.30
2018-06-23T05:40:58.849Z,6.30
2018-06-23T05:41:58.810Z,7.00
2018-06-23T05:42:58.816Z,6.20
2018-06-23T05:43:58.802Z,6.70
2018-06-23T05:44:58.867Z,6.60
2018-06-23T05:45:58.821Z,6.60
2018-06-23T05:46:58.855Z,7.20
2018-06-23T05:47:58.939Z,6.80
2018-06-23T05:48:58.854Z,6.60
2018-06-23T05:49:58.813Z,7.00
2018-06-23T05:50:58.816Z,6.50
2018-06-23T05:51:58.848Z,6.40
2018-06-23T05:52:58.880Z,6.70
2018-06-23T05:53:58.811Z,6.80
2018-06-23T05:54:58.814Z,6.50
2018-06-23T05:55:58.873Z,6.50
2018-06-23T05:56:58.822Z,6.50
2018-06-23T05:57:58.885Z,6.70
2018-06-23T05:58:58.826Z,6.00
2018-06-23T05:59:58.834Z,6.20
2018-06-23T06:00:58.833Z,7.00
2018-06-23T06:01:58.861Z,7.30
2018-06-23T06:02:58.866Z,6.60
2018-06-23T06:03:58.882Z,6.20
2018-06-23T06:04:58.886Z,6.40
2018-06-23T06:05:58.886Z,6.80
2018-06-23T06:06:58.869Z,7.00
2018-06-23T06:07:58.848Z,6.80
2018-06-23T06:08:58.971Z,7.10
2018-06-23T06:09:58.908Z,6.50
2018-06-23T06:10:58.837Z,6.10
2018-06-23T06:11:58.883Z,6.20
2018-06-23T06:12:58.908Z,6.40
2018-06-23T06:13:58.881Z,6.40
2018-06-23T06:14:58.923Z,6.70
2018-06-23T06:15:58.876Z,6.90
2018-06-23T06:16:58.880Z,6.20
2018-06-23T06:17:58.898Z,6.30
2018-06-23T06:18:58.995Z,6.20
2018-06-23T06:19:58.898Z,6.10
2018-06-23T06:20:58.920Z,6.30
2018-06-23T06:21:58.867Z,6.40
2018-06-23T06:22:58.872Z,6.30
2018-06-23T06:23:58.880Z,6.40
2018-06-23T06:24:58.924Z,6.00
2018-06-23T06:25:58.909Z,6.30
2018-06-23T06:26:58.910Z,6.50
2018-06-23T06:27:58.912Z,5.70
2018-06-23T06:28:58.937Z,5.70
2018-06-23T06:29:58.925Z,5.60
2018-06-23T06:30:58.882Z,5.90
2018-06-23T06:31:58.884Z,6.10
2018-06-23T06:32:58.899Z,5.80
2018-06-23T06:33:58.907Z,5.70
2018-06-23T06:34:59.033Z,5.50
2018-06-23T06:35:58.900Z,5.30
2018-06-23T06:36:58.917Z,5.70
2018-06-23T06:37:58.928Z,5.30
2018-06-23T06:38:58.941Z,5.30
2018-06-23T06:39:58.946Z,5.70
2018-06-23T06:40:58.953Z,5.50
2018-06-23T06:41:58.943Z,5.90
2018-06-23T06:42:58.960Z,5.40
2018-06-23T06:43:58.928Z,5.10
2018-06-23T06:44:58.940Z,5.80
2018-06-23T06:45:59.745Z,5.90
2018-06-23T06:46:58.930Z,5.30
2018-06-23T06:47:58.957Z,5.60
2018-06-23T06:48:58.976Z,5.50
2018-06-23T06:49:58.983Z,6.00
2018-06-23T06:50:58.931Z,6.10
2018-06-23T06:51:58.960Z,5.80
2018-06-23T06:52:58.972Z,5.80
2018-06-23T06:53:58.995Z,5.70
2018-06-23T06:54:58.963Z,5.30
2018-06-23T06:55:58.948Z,6.00
2018-06-23T06:56:58.984Z,5.40
2018-06-23T06:57:58.938Z,5.30
2018-06-23T06:58:58.957Z,5.30
2018-06-23T06:59:58.995Z,5.70
2018-06-23T07:00:58.988Z,5.60
2018-06-23T07:01:58.970Z,5.80
2018-06-23T07:02:58.988Z,4.80
2018-06-23T07:03:59.005Z,5.70
2018-06-23T07:04:58.979Z,6.00
2018-06-23T07:05:59.047Z,5.40
2018-06-23T07:06:59.010Z,5.40
2018-06-23T07:07:59.000Z,5.40
2018-06-23T07:08:59.095Z,5.30
2018-06-23T07:09:59.014Z,6.20
2018-06-23T07:10:59.053Z,5.40
2018-06-23T07:11:59.024Z,5.90
2018-06-23T07:12:58.981Z,5.50
2018-06-23T07:13:59.034Z,5.90
2018-06-23T07:14:58.986Z,5.10
2018-06-23T07:15:58.982Z,4.90
2018-06-23T07:16:59.062Z,5.60
2018-06-23T07:17:59.188Z,5.10
2018-06-23T07:18:59.091Z,5.20
2018-06-23T07:19:59.037Z,5.70
2018-06-23T07:20:59.047Z,5.90
2018-06-23T07:21:59.048Z,5.90
2018-06-23T07:22:59.028Z,5.60
2018-06-23T07:23:59.122Z,5.70
2018-06-23T07:24:59.060Z,5.60
2018-06-23T07:25:59.092Z,5.80
2018-06-23T07:26:59.029Z,5.00
2018-06-23T07:27:59.044Z,5.70
2018-06-23T07:28:59.053Z,5.20
2018-06-23T07:29:59.065Z,4.80
2018-06-23T07:30:59.074Z,5.30
2018-06-23T07:31:59.073Z,5.00
2018-06-23T07:32:59.084Z,5.10
2018-06-23T07:33:59.068Z,4.30
2018-06-23T07:34:59.110Z,5.30
2018-06-23T07:35:59.072Z,4.90
2018-06-23T07:36:59.072Z,4.60
2018-06-23T07:37:59.092Z,4.30
2018-06-23T07:38:59.062Z,4.30
2018-06-23T07:39:59.063Z,4.50
2018-06-23T07:40:59.095Z,5.10
2018-06-23T07:41:59.096Z,5.10
2018-06-23T07:42:59.144Z,4.60
2018-06-23T07:43:59.069Z,4.60
2018-06-23T07:44:59.088Z,4.00
2018-06-23T07:45:59.096Z,4.20
2018-06-23T07:46:59.081Z,4.50
2018-06-23T07:47:59.103Z,5.10
2018-06-23T07:48:59.128Z,5.00
2018-06-23T07:49:59.754Z,4.20
2018-06-23T07:50:59.324Z,4.30
2018-06-23T07:51:59.106Z,4.90
2018-06-23T07:52:59.110Z,5.20
2018-06-23T07:53:59.124Z,4.10
2018-06-23T07:54:59.137Z,4.40
2018-06-23T07:55:59.219Z,4.20
2018-06-23T07:56:59.121Z,4.80
2018-06-23T07:57:59.248Z,4.60
2018-06-23T07:58:59.182Z,4.30
2018-06-23T07:59:59.123Z,4.40
2018-06-23T08:00:59.191Z,4.10
2018-06-23T08:01:59.136Z,3.90
2018-06-23T08:02:59.220Z,4.40
2018-06-23T08:03:59.146Z,4.40
2018-06-23T08:04:59.166Z,4.50
2018-06-23T08:05:59.193Z,4.10
2018-06-23T08:06:59.191Z,4.20
2018-06-23T08:07:59.179Z,4.20
2018-06-23T08:08:59.211Z,3.90
2018-06-23T08:09:59.208Z,4.30
2018-06-23T08:10:59.218Z,4.40
2018-06-23T08:11:59.179Z,3.90
2018-06-23T08:12:59.347Z,4.80
2018-06-23T08:13:59.249Z,4.10
2018-06-23T08:14:59.211Z,4.00
2018-06-23T08:15:59.250Z,4.10
2018-06-23T08:16:59.214Z,3.60
2018-06-23T08:17:59.246Z,3.90
2018-06-23T08:18:59.238Z,3.30
2018-06-23T08:19:59.281Z,3.80
2018-06-23T08:20:59.286Z,3.90
2018-06-23T08:21:59.292Z,3.80
2018-06-23T08:22:59.285Z,3.70
2018-06-23T08:23:59.285Z,3.60
2018-06-23T08:24:59.293Z,3.60
2018-06-23T08:25:59.316Z,3.90
2018-06-23T08:26:59.311Z,4.00
2018-06-23T08:27:59.321Z,3.70
2018-06-23T08:28:59.321Z,3.30
2018-06-23T08:29:59.292Z,3.80
2018-06-23T08:30:59.386Z,3.40
2018-06-23T08:31:59.386Z,5.50
2018-06-23T08:32:59.308Z,6.10
2018-06-23T08:33:59.775Z,4.40
2018-06-23T08:34:59.355Z,4.50
2018-06-23T08:35:59.364Z,3.60
2018-06-23T08:36:59.392Z,3.90
2018-06-23T08:37:59.357Z,3.90
2018-06-23T08:38:59.382Z,3.90
2018-06-23T08:39:59.492Z,3.70
2018-06-23T08:40:59.374Z,3.40
2018-06-23T08:41:59.416Z,3.70
2018-06-23T08:42:59.433Z,3.50
2018-06-23T08:43:59.425Z,3.50
2018-06-23T08:44:59.428Z,3.80
2018-06-23T08:45:59.658Z,3.90
2018-06-23T08:46:59.525Z,3.70
2018-06-23T08:47:59.490Z,3.50
2018-06-23T08:48:59.466Z,3.20
2018-06-23T08:49:59.471Z,4.40
2018-06-23T08:50:59.484Z,4.10
2018-06-23T08:51:59.457Z,3.60
2018-06-23T08:52:59.491Z,3.50
2018-06-23T08:53:59.494Z,3.90
2018-06-23T08:54:59.577Z,3.10
2018-06-23T08:55:59.501Z,3.80
2018-06-23T08:56:59.488Z,3.30
2018-06-23T08:57:59.530Z,3.70
2018-06-23T08:58:59.579Z,3.80
2018-06-23T08:59:59.519Z,3.60
2018-06-23T09:00:59.506Z,3.70
2018-06-23T09:01:59.698Z,3.30
2018-06-23T09:02:59.601Z,3.40
2018-06-23T09:03:59.603Z,3.10
2018-06-23T09:04:59.573Z,3.40
2018-06-23T09:05:59.596Z,3.40
2018-06-23T09:06:59.639Z,3.30
2018-06-23T09:07:59.643Z,3.50
2018-06-23T09:08:59.622Z,3.40
2018-06-23T09:09:59.819Z,4.00
2018-06-23T09:10:59.655Z,3.20
2018-06-23T09:11:59.681Z,3.10
2018-06-23T09:12:59.695Z,3.30
2018-06-23T09:13:59.634Z,3.50
2018-06-23T09:14:59.665Z,3.20
2018-06-23T09:15:59.739Z,3.60
2018-06-23T09:16:59.734Z,3.00
2018-06-23T09:17:59.743Z,3.90
2018-06-23T09:18:59.749Z,3.20
2018-06-23T09:20:00.308Z,3.00
2018-06-23T09:20:59.731Z,3.50
2018-06-23T09:21:59.725Z,3.50
2018-06-23T09:22:59.777Z,3.40
2018-06-23T09:23:59.812Z,2.90
2018-06-23T09:24:59.809Z,3.70
2018-06-23T09:25:59.984Z,3.40
2018-06-23T09:26:59.824Z,3.90
2018-06-23T09:27:59.850Z,3.80
2018-06-23T09:28:59.862Z,3.70
2018-06-23T09:29:59.843Z,4.00
2018-06-23T09:30:59.857Z,3.50
2018-06-23T09:31:59.872Z,3.60
2018-06-23T09:32:59.864Z,3.60
2018-06-23T09:33:59.879Z,3.20
2018-06-23T09:34:59.910Z,3.60
2018-06-23T09:35:59.881Z,3.40
2018-06-23T09:36:59.916Z,3.40
2018-06-23T09:37:59.905Z,3.00
2018-06-23T09:39:00.005Z,3.00
2018-06-23T09:39:59.932Z,3.60
2018-06-23T09:40:59.935Z,3.70
2018-06-23T09:41:59.919Z,3.70
2018-06-23T09:42:59.962Z,3.20
2018-06-23T09:43:59.940Z,3.30
2018-06-23T09:45:00.826Z,4.20
2018-06-23T09:46:00.044Z,3.60
2018-06-23T09:46:59.982Z,3.70
2018-06-23T09:48:00.000Z,4.10
2018-06-23T09:49:00.003Z,3.70
2018-06-23T09:50:00.014Z,3.70
2018-06-23T09:51:00.014Z,4.10
2018-06-23T09:52:00.028Z,3.80
2018-06-23T09:53:00.049Z,4.50
2018-06-23T09:53:59.989Z,3.70
2018-06-23T09:55:00.019Z,4.10
2018-06-23T09:56:00.150Z,3.50
2018-06-23T09:57:00.052Z,4.00
2018-06-23T09:57:59.997Z,4.20
2018-06-23T09:59:00.103Z,3.90
2018-06-23T10:00:00.012Z,4.00
2018-06-23T10:01:00.070Z,3.60
2018-06-23T10:02:00.057Z,3.90
2018-06-23T10:03:00.054Z,4.20
2018-06-23T10:04:00.050Z,4.10
2018-06-23T10:05:00.085Z,4.20
2018-06-23T10:06:00.097Z,3.50
2018-06-23T10:07:00.905Z,4.30
2018-06-23T10:08:00.106Z,3.50
2018-06-23T10:09:00.094Z,3.40
2018-06-23T10:10:00.840Z,3.90
2018-06-23T10:11:00.103Z,4.10
2018-06-23T10:12:03.929Z,3.80
2018-06-23T10:13:00.131Z,3.80
2018-06-23T10:14:00.083Z,3.50
2018-06-23T10:15:00.098Z,3.50
2018-06-23T10:16:00.138Z,3.80
2018-06-23T10:17:01.557Z,4.40
2018-06-23T10:18:00.121Z,3.40
2018-06-23T10:19:00.207Z,3.40
2018-06-23T10:20:00.150Z,3.40
2018-06-23T10:21:00.138Z,3.90
2018-06-23T10:22:00.237Z,3.40
2018-06-23T10:23:00.134Z,3.10
2018-06-23T10:24:00.141Z,3.20
2018-06-23T10:25:00.160Z,3.30
2018-06-23T10:26:00.178Z,2.90
2018-06-23T10:27:00.152Z,3.20
2018-06-23T10:28:00.162Z,3.60
2018-06-23T10:29:00.166Z,3.20
2018-06-23T10:30:00.193Z,3.40
2018-06-23T10:31:00.191Z,3.20
2018-06-23T10:32:00.192Z,3.20
2018-06-23T10:33:00.217Z,3.20
2018-06-23T10:34:00.212Z,3.30
2018-06-23T10:35:00.231Z,3.50
2018-06-23T10:36:00.232Z,3.10
2018-06-23T10:37:00.246Z,3.10
2018-06-23T10:38:00.240Z,3.30
2018-06-23T10:39:00.242Z,4.20
2018-06-23T10:40:00.279Z,3.40
2018-06-23T10:41:00.233Z,3.60
2018-06-23T10:42:00.352Z,3.60
2018-06-23T10:43:00.296Z,3.40
2018-06-23T10:44:00.325Z,3.00
2018-06-23T10:45:00.264Z,3.00
2018-06-23T10:46:00.248Z,3.70
2018-06-23T10:47:00.286Z,2.80
2018-06-23T10:48:00.397Z,2.90
2018-06-23T10:49:00.344Z,2.90
2018-06-23T10:50:00.316Z,3.20
2018-06-23T10:51:00.307Z,3.00
2018-06-23T10:52:00.281Z,2.80
2018-06-23T10:53:00.271Z,3.40
2018-06-23T10:54:00.308Z,2.90
2018-06-23T10:55:00.323Z,2.80
2018-06-23T10:56:00.359Z,3.20
2018-06-23T10:57:00.329Z,3.10
2018-06-23T10:58:00.327Z,3.60
2018-06-23T10:59:00.314Z,3.40
2018-06-23T11:00:00.351Z,3.30
2018-06-23T11:01:00.377Z,3.20
2018-06-23T11:02:00.374Z,3.20
2018-06-23T11:03:00.377Z,3.40
2018-06-23T11:04:00.379Z,2.90
2018-06-23T11:05:00.439Z,3.40
2018-06-23T11:06:00.388Z,3.20
2018-06-23T11:07:00.353Z,4.00
2018-06-23T11:08:00.360Z,3.10
2018-06-23T11:09:00.406Z,2.50
2018-06-23T11:10:00.406Z,2.80
2018-06-23T11:11:00.389Z,3.00
2018-06-23T11:12:00.381Z,3.30
2018-06-23T11:13:00.389Z,3.10
2018-06-23T11:14:00.428Z,3.50
2018-06-23T11:15:00.411Z,3.20
2018-06-23T11:16:00.394Z,2.70
2018-06-23T11:17:00.480Z,3.00
2018-06-23T11:18:00.432Z,3.00
2018-06-23T11:19:00.471Z,3.00
2018-06-23T11:20:00.471Z,3.00
2018-06-23T11:21:00.525Z,3.50
2018-06-23T11:22:00.480Z,2.80
2018-06-23T11:23:00.438Z,2.90
2018-06-23T11:24:00.479Z,3.10
2018-06-23T11:25:00.448Z,3.00
2018-06-23T11:26:00.480Z,3.00
2018-06-23T11:27:00.476Z,3.10
2018-06-23T11:28:00.515Z,2.70
2018-06-23T11:29:00.508Z,2.80
2018-06-23T11:30:00.525Z,3.20
2018-06-23T11:31:00.619Z,2.80
2018-06-23T11:32:00.535Z,3.20
2018-06-23T11:33:00.488Z,2.80
2018-06-23T11:34:00.554Z,2.70
2018-06-23T11:35:00.529Z,3.00
2018-06-23T11:36:00.581Z,3.00
2018-06-23T11:37:00.537Z,2.60
2018-06-23T11:38:00.518Z,2.60
2018-06-23T11:39:00.536Z,2.80
2018-06-23T11:40:00.522Z,2.50
2018-06-23T11:41:00.550Z,2.40
2018-06-23T11:42:00.543Z,2.60
2018-06-23T11:43:00.537Z,2.70
2018-06-23T11:44:00.580Z,2.50
2018-06-23T11:45:00.576Z,2.90
2018-06-23T11:46:00.581Z,2.60
2018-06-23T11:47:00.533Z,2.90
2018-06-23T11:48:00.628Z,3.00
2018-06-23T11:49:00.584Z,2.60
2018-06-23T11:50:00.604Z,2.80
2018-06-23T11:51:00.554Z,3.10
2018-06-23T11:52:00.601Z,3.00
2018-06-23T11:53:00.680Z,2.60
2018-06-23T11:54:00.563Z,3.60
2018-06-23T11:55:00.623Z,2.70
2018-06-23T11:56:00.608Z,2.70
2018-06-23T11:57:00.649Z,2.80
2018-06-23T11:58:00.779Z,2.70
2018-06-23T11:59:00.590Z,2.80
2018-06-23T12:00:00.646Z,3.10
2018-06-23T12:01:00.610Z,2.70
2018-06-23T12:02:00.691Z,3.00
2018-06-23T12:03:00.643Z,3.10
2018-06-23T12:04:00.688Z,2.80
2018-06-23T12:05:00.618Z,2.90
2018-06-23T12:06:00.691Z,2.60
2018-06-23T12:07:00.819Z,3.10
2018-06-23T12:08:00.783Z,2.50
2018-06-23T12:09:00.665Z,3.20
2018-06-23T12:10:00.623Z,2.60
2018-06-23T12:11:00.666Z,2.50
2018-06-23T12:12:00.725Z,2.40
2018-06-23T12:13:00.720Z,3.20
2018-06-23T12:14:00.689Z,2.90
2018-06-23T12:15:00.668Z,2.70
2018-06-23T12:16:00.679Z,2.70
2018-06-23T12:17:00.715Z,3.20
2018-06-23T12:18:00.722Z,2.70
2018-06-23T12:19:00.719Z,3.00
2018-06-23T12:20:00.773Z,2.70
2018-06-23T12:21:00.694Z,2.60
2018-06-23T12:22:00.719Z,2.80
2018-06-23T12:23:00.670Z,2.70
2018-06-23T12:24:00.773Z,2.60
2018-06-23T12:25:00.828Z,2.40
2018-06-23T12:26:00.718Z,2.40
2018-06-23T12:27:00.721Z,2.60
2018-06-23T12:28:00.752Z,2.30
2018-06-23T12:29:00.751Z,2.70
2018-06-23T12:30:00.791Z,2.80
2018-06-23T12:31:01.405Z,2.70
2018-06-23T12:32:00.771Z,2.40
2018-06-23T12:33:00.751Z,3.50
2018-06-23T12:34:00.741Z,2.40
2018-06-23T12:35:00.750Z,3.10
2018-06-23T12:36:00.791Z,3.00
2018-06-23T12:37:00.799Z,2.80
2018-06-23T12:38:00.761Z,2.90
2018-06-23T12:39:00.767Z,2.80
2018-06-23T12:40:00.784Z,2.90
2018-06-23T12:41:00.756Z,2.60
2018-06-23T12:42:00.833Z,2.60
2018-06-23T12:43:00.805Z,2.40
2018-06-23T12:44:00.823Z,2.80
2018-06-23T12:45:00.768Z,3.10
2018-06-23T12:46:00.850Z,2.80
2018-06-23T12:47:00.842Z,2.60
2018-06-23T12:48:00.845Z,2.60
2018-06-23T12:49:00.833Z,2.80
2018-06-23T12:50:00.808Z,3.00
2018-06-23T12:51:00.803Z,2.70
2018-06-23T12:52:00.807Z,2.70
2018-06-23T12:53:00.851Z,2.90
2018-06-23T12:54:00.832Z,2.80
2018-06-23T12:55:00.814Z,2.80
2018-06-23T12:56:00.942Z,2.90
2018-06-23T12:57:00.832Z,2.90
2018-06-23T12:58:00.839Z,3.30
2018-06-23T12:59:00.870Z,2.90
2018-06-23T13:00:00.840Z,2.80
2018-06-23T13:01:00.885Z,2.90
2018-06-23T13:02:01.137Z,2.80
2018-06-23T13:03:01.012Z,2.80
2018-06-23T13:04:00.892Z,2.80
2018-06-23T13:05:00.907Z,2.60
2018-06-23T13:06:00.949Z,2.60
2018-06-23T13:07:00.895Z,2.60
2018-06-23T13:08:00.893Z,2.50
2018-06-23T13:09:00.889Z,2.20
2018-06-23T13:10:00.924Z,2.20
2018-06-23T13:11:00.887Z,2.50
2018-06-23T13:12:00.926Z,2.80
2018-06-23T13:13:00.872Z,2.60
2018-06-23T13:14:01.628Z,2.20
2018-06-23T13:15:00.904Z,2.80
2018-06-23T13:16:00.936Z,2.80
2018-06-23T13:17:00.892Z,2.60
2018-06-23T13:18:00.951Z,2.80
2018-06-23T13:19:00.951Z,2.40